Time;durP1;ratioP1;P1;durP2;ratioP2;P2;SDS_P1;SDS_P2;PMS_P1;PMS_P2;Temp;Humidity;BMP_temperature;BMP_pressure;BME280_temperature;BME280_humidity;BME280_pressure;Samples;Min_cycle;Max_cycle;Signal;HPM_P1;HPM_P2
2020/12/26 00:01:30;;;;;;;3.25;2.25;;;;;;;1.25;77.53;99685.66;1725233;83;21186;-63
2020/12/26 00:03:58;;;;;;;3.85;2.02;;;;;;;1.25;78.09;99690.00;1763973;81;21232;-62
2020/12/26 00:06:26;;;;;;;4.15;2.55;;;;;;;1.23;77.62;99693.03;1766507;81;21360;-62
2020/12/26 00:08:54;;;;;;;3.50;2.05;;;;;;;1.22;77.66;99700.38;1763972;81;21633;-63
2020/12/26 00:11:22;;;;;;;2.90;1.62;;;;;;;1.23;77.72;99703.41;1766346;81;21613;-63
2020/12/26 00:13:50;;;;;;;3.80;2.17;;;;;;;1.22;77.82;99705.55;1764017;81;21522;-63
2020/12/26 00:16:19;;;;;;;5.08;2.62;;;;;;;1.23;78.32;99703.41;1766398;80;21629;-62
2020/12/26 00:18:46;;;;;;;3.98;2.30;;;;;;;1.21;78.01;99695.63;1764243;81;22106;-63
2020/12/26 00:21:17;;;;;;;6.75;2.60;;;;;;;1.21;77.79;99701.25;1766432;81;22078;-64
2020/12/26 00:23:45;;;;;;;4.40;2.63;;;;;;;1.18;77.61;99699.98;1764170;81;21224;-63
2020/12/26 00:26:15;;;;;;;4.42;2.33;;;;;;;1.16;77.67;99709.50;1766347;81;21628;-64
2020/12/26 00:28:43;;;;;;;6.25;2.65;;;;;;;1.15;77.70;99715.55;1764084;81;21224;-63
2020/12/26 00:31:15;;;;;;;4.17;2.70;;;;;;;1.14;76.83;99708.65;1766517;81;22303;-64
2020/12/26 00:33:43;;;;;;;4.20;2.67;;;;;;;1.13;77.25;99709.50;1732014;77;21272;-75
2020/12/26 00:36:11;;;;;;;5.08;2.55;;;;;;;1.12;77.96;99706.49;1685939;84;21227;-76
2020/12/26 00:38:39;;;;;;;4.47;2.30;;;;;;;1.12;77.44;99712.53;1719297;82;21689;-75
2020/12/26 00:41:13;;;;;;;4.00;2.40;;;;;;;1.12;77.97;99711.68;1727166;83;21227;-76
2020/12/26 00:43:41;;;;;;;3.37;2.30;;;;;;;1.11;77.72;99714.72;1727577;81;21423;-75
2020/12/26 00:46:10;;;;;;;3.55;2.40;;;;;;;1.11;77.64;99712.56;1727713;83;21202;-75
2020/12/26 00:48:39;;;;;;;4.37;2.40;;;;;;;1.12;77.59;99723.35;1755980;81;21774;-75
2020/12/26 00:51:11;;;;;;;5.80;2.67;;;;;;;1.12;77.49;99724.65;1727579;83;21221;-76
2020/12/26 00:53:55;;;;;;;4.33;1.90;;;;;;;1.15;77.90;99724.63;1844287;76;22437;-78
2020/12/26 00:56:22;;;;;;;4.22;1.62;;;;;;;1.11;77.64;99725.53;1815230;79;21570;-76
2020/12/26 00:58:50;;;;;;;4.03;2.17;;;;;;;1.10;78.09;99731.57;1784790;80;21452;-84
2020/12/26 01:01:19;;;;;;;3.20;2.40;;;;;;;1.08;78.12;99724.23;1784824;80;21174;-81
2020/12/26 01:03:58;;;;;;;3.22;2.25;;;;;;;1.10;78.55;99733.72;1766514;78;21201;-66
2020/12/26 01:06:25;;;;;;;4.12;2.37;;;;;;;1.10;77.04;99731.57;1727857;83;21680;-65
2020/12/26 01:08:53;;;;;;;4.37;2.55;;;;;;;1.07;77.37;99736.34;1762040;80;21710;-65
2020/12/26 01:11:21;;;;;;;3.72;2.35;;;;;;;1.08;77.22;99737.20;1753802;81;21380;-64
2020/12/26 01:13:49;;;;;;;4.78;2.45;;;;;;;1.07;77.37;99740.67;1753832;81;21734;-66
2020/12/26 01:16:17;;;;;;;4.87;2.60;;;;;;;1.04;76.75;99746.74;1754054;81;22266;-65
2020/12/26 01:18:45;;;;;;;4.72;2.40;;;;;;;1.07;77.17;99749.75;1754052;79;21187;-64
2020/12/26 01:21:14;;;;;;;4.50;2.40;;;;;;;1.04;77.11;99747.59;1753842;81;21216;-64
2020/12/26 01:23:42;;;;;;;3.10;1.98;;;;;;;1.05;76.79;99746.71;1754019;81;21405;-64
2020/12/26 01:26:10;;;;;;;5.87;2.20;;;;;;;1.04;76.86;99739.81;1735588;81;21655;-64
2020/12/26 01:28:39;;;;;;;3.65;1.72;;;;;;;1.03;76.34;99746.30;1697986;83;21213;-64
2020/12/26 01:31:08;;;;;;;3.77;2.05;;;;;;;1.01;76.60;99737.25;1698014;84;21198;-63
2020/12/26 01:33:36;;;;;;;2.12;1.62;;;;;;;1.01;76.77;99732.06;1697965;84;21159;-64
2020/12/26 01:36:04;;;;;;;4.75;2.35;;;;;;;1.04;76.72;99735.92;1699093;82;22153;-63
2020/12/26 01:38:33;;;;;;;4.85;2.37;;;;;;;0.86;76.52;99710.08;1728372;83;21180;-63
2020/12/26 01:41:00;;;;;;;3.50;2.22;;;;;;;1.03;76.48;99738.08;1729024;83;21125;-64
2020/12/26 01:43:27;;;;;;;3.25;1.70;;;;;;;1.03;76.58;99743.26;1728999;81;21829;-64
2020/12/26 01:45:56;;;;;;;5.90;2.55;;;;;;;1.01;76.84;99748.91;1729066;83;21141;-63
2020/12/26 01:48:23;;;;;;;3.87;2.22;;;;;;;0.99;76.61;99745.46;1728937;83;21205;-63
2020/12/26 01:50:52;;;;;;;3.72;1.98;;;;;;;0.97;76.61;99742.02;1697338;83;21206;-64
2020/12/26 01:53:19;;;;;;;4.42;2.42;;;;;;;0.95;76.73;99745.04;1709545;83;21232;-63
2020/12/26 01:55:48;;;;;;;3.80;2.42;;;;;;;0.92;76.57;99743.77;1708977;82;21199;-64
2020/12/26 01:58:16;;;;;;;3.62;2.35;;;;;;;0.92;76.84;99739.88;1708466;84;21592;-64
2020/12/26 02:00:44;;;;;;;6.17;2.30;;;;;;;0.91;76.55;99739.43;1708306;84;21292;-64
2020/12/26 02:03:11;;;;;;;3.87;2.20;;;;;;;0.89;76.53;99741.16;1707988;83;21196;-63
2020/12/26 02:05:40;;;;;;;3.70;1.98;;;;;;;0.86;76.97;99733.85;1700071;84;21638;-64
2020/12/26 02:08:08;;;;;;;4.30;2.30;;;;;;;0.89;76.79;99739.02;1699393;83;21608;-63
2020/12/26 02:10:36;;;;;;;4.15;2.12;;;;;;;0.87;76.91;99738.16;1714951;83;21580;-63
2020/12/26 02:13:04;;;;;;;4.28;2.10;;;;;;;0.87;76.90;99741.60;1715103;83;21442;-63
2020/12/26 02:15:32;;;;;;;4.58;2.30;;;;;;;0.89;77.17;99746.35;1714996;81;21164;-62
2020/12/26 02:18:00;;;;;;;3.67;1.98;;;;;;;0.91;77.19;99756.28;1715031;83;21205;-64
2020/12/26 02:20:30;;;;;;;4.17;2.30;;;;;;;0.89;77.23;99745.05;1714180;83;22248;-63
2020/12/26 02:22:59;;;;;;;3.92;2.33;;;;;;;0.88;76.80;99745.08;1718898;82;21205;-64
2020/12/26 02:25:28;;;;;;;3.02;2.05;;;;;;;0.86;76.86;99742.48;1729576;81;21381;-63
2020/12/26 02:27:56;;;;;;;4.12;2.20;;;;;;;0.86;77.28;99738.59;1729069;80;21146;-64
2020/12/26 02:30:23;;;;;;;3.75;2.20;;;;;;;0.87;77.35;99744.20;1729452;82;21579;-64
2020/12/26 02:32:52;;;;;;;5.55;2.40;;;;;;;0.88;77.43;99752.42;1729447;82;21194;-64
2020/12/26 02:35:20;;;;;;;4.05;2.27;;;;;;;0.88;77.21;99750.27;1729414;81;21178;-64
2020/12/26 02:37:48;;;;;;;5.37;2.30;;;;;;;0.89;77.44;99755.42;1729353;82;21377;-64
2020/12/26 02:40:15;;;;;;;3.98;2.17;;;;;;;0.89;77.65;99758.02;1729394;82;21202;-62
2020/12/26 02:42:44;;;;;;;4.35;2.37;;;;;;;0.91;77.51;99765.80;1729327;80;21244;-63
2020/12/26 02:48:05;;;;;;;3.67;1.87;;;;;;;0.93;76.64;99774.00;1814104;79;22618;-65
2020/12/26 02:50:33;;;;;;;3.80;2.37;;;;;;;0.87;76.92;99771.42;1786915;80;21508;-64
2020/12/26 02:53:01;;;;;;;4.83;2.47;;;;;;;0.88;76.98;99777.05;1787201;80;21394;-64
2020/12/26 02:55:31;;;;;;;3.40;2.20;;;;;;;0.88;76.31;99769.27;1785624;80;21202;-64
2020/12/26 02:57:59;;;;;;;4.35;2.42;;;;;;;0.87;77.10;99775.30;1719165;83;21215;-64
2020/12/26 03:00:27;;;;;;;4.08;2.65;;;;;;;0.87;77.11;99774.02;1722741;83;22146;-64
2020/12/26 03:02:54;;;;;;;4.37;2.65;;;;;;;0.87;76.61;99770.13;1719168;83;21622;-64
2020/12/26 03:05:21;;;;;;;5.67;2.67;;;;;;;0.86;76.43;99771.00;1722604;83;23017;-64
2020/12/26 03:07:50;;;;;;;6.20;3.22;;;;;;;0.85;76.80;99766.67;1713193;83;21228;-64
2020/12/26 03:10:19;;;;;;;6.17;2.80;;;;;;;0.85;76.27;99774.45;1693332;82;21605;-65
2020/12/26 03:12:50;;;;;;;5.07;3.00;;;;;;;0.84;76.29;99775.33;1719423;83;21153;-65
2020/12/26 03:15:17;;;;;;;4.17;2.70;;;;;;;0.80;76.07;99772.31;1718950;83;21184;-66
2020/12/26 03:17:45;;;;;;;4.20;3.25;;;;;;;0.80;76.30;99769.72;1718940;83;21294;-63
2020/12/26 03:20:14;;;;;;;5.03;2.90;;;;;;;0.79;76.27;99779.23;1718586;83;21304;-64
2020/12/26 03:22:42;;;;;;;4.25;2.33;;;;;;;0.77;76.02;99774.92;1719081;83;21471;-63
2020/12/26 03:25:11;;;;;;;4.92;3.05;;;;;;;0.78;76.34;99790.89;1719104;83;21203;-65
2020/12/26 03:27:41;;;;;;;4.35;2.75;;;;;;;0.78;76.09;99798.66;1719204;83;21185;-64
2020/12/26 03:30:09;;;;;;;3.37;2.47;;;;;;;0.78;76.38;99798.66;1719277;83;21831;-64
2020/12/26 03:32:38;;;;;;;5.37;2.80;;;;;;;0.76;76.15;99796.51;1719141;83;21201;-64
2020/12/26 03:35:08;;;;;;;4.25;2.80;;;;;;;0.74;75.86;99795.67;1719148;83;21564;-63
2020/12/26 03:37:37;;;;;;;5.28;3.00;;;;;;;0.72;76.28;99789.19;1718976;83;21197;-63
2020/12/26 03:40:08;;;;;;;5.80;2.95;;;;;;;0.73;76.18;99787.02;1719199;83;21212;-65
2020/12/26 03:42:37;;;;;;;5.40;3.50;;;;;;;0.71;75.81;99784.85;1719275;83;21343;-64
2020/12/26 03:45:05;;;;;;;4.72;3.02;;;;;;;0.72;76.03;99783.15;1719330;83;21189;-64
2020/12/26 03:47:32;;;;;;;6.22;3.20;;;;;;;0.72;75.46;99782.71;1707237;83;21738;-64
2020/12/26 03:50:00;;;;;;;4.72;3.02;;;;;;;0.72;74.77;99789.19;1736740;82;21155;-64
2020/12/26 03:52:27;;;;;;;6.37;2.92;;;;;;;0.72;75.11;99790.92;1736445;82;21199;-64
2020/12/26 03:54:54;;;;;;;5.15;2.72;;;;;;;0.71;74.56;99791.33;1736663;82;21384;-64
2020/12/26 03:57:22;;;;;;;7.42;2.92;;;;;;;0.71;74.58;99791.33;1736318;82;21783;-65
2020/12/26 03:59:50;;;;;;;4.97;2.67;;;;;;;0.71;74.19;99793.92;1754655;81;21160;-64
2020/12/26 04:02:18;;;;;;;4.40;2.75;;;;;;;0.71;74.27;99795.66;1700548;84;21138;-66
2020/12/26 04:04:46;;;;;;;5.42;2.70;;;;;;;0.70;74.21;99792.66;1700585;84;21587;-64
2020/12/26 04:07:13;;;;;;;4.87;2.90;;;;;;;0.69;74.20;99798.69;1766331;80;21396;-66
2020/12/26 04:09:42;;;;;;;3.05;2.40;;;;;;;0.67;74.03;99795.23;1754173;81;21662;-65
2020/12/26 04:12:10;;;;;;;4.62;2.70;;;;;;;0.66;74.01;99796.11;1736003;82;21117;-63
2020/12/26 04:14:38;;;;;;;3.12;2.37;;;;;;;0.63;74.37;99803.02;1727811;82;21192;-64
2020/12/26 04:17:06;;;;;;;3.80;2.30;;;;;;;0.56;74.14;99793.54;1645853;87;21458;-63
2020/12/26 04:19:36;;;;;;;4.78;2.60;;;;;;;0.52;74.93;99798.29;1646007;87;21655;-63
2020/12/26 04:22:04;;;;;;;3.47;2.45;;;;;;;0.50;74.78;99809.52;1646163;85;21255;-67
2020/12/26 04:24:31;;;;;;;4.87;2.55;;;;;;;0.43;74.65;99807.38;1669133;85;21208;-64
2020/12/26 04:26:59;;;;;;;4.60;2.67;;;;;;;0.38;75.21;99807.38;1671006;85;21219;-65
2020/12/26 04:29:27;;;;;;;3.80;2.50;;;;;;;0.35;75.60;99813.01;1671011;85;21239;-65
2020/12/26 04:31:55;;;;;;;4.10;2.65;;;;;;;0.30;75.03;99810.83;1670952;85;23639;-64
2020/12/26 04:34:23;;;;;;;4.05;2.30;;;;;;;0.24;75.85;99812.14;1670966;85;21762;-64
2020/12/26 04:36:50;;;;;;;2.72;2.15;;;;;;;0.15;75.02;99817.74;1671045;84;21372;-64
2020/12/26 04:39:18;;;;;;;4.67;2.60;;;;;;;0.03;75.01;99828.11;1656954;85;21248;-65
2020/12/26 04:41:47;;;;;;;4.83;3.10;;;;;;;-0.04;75.41;99822.05;1643668;87;21647;-65
2020/12/26 04:44:15;;;;;;;4.97;2.95;;;;;;;-0.13;75.62;99820.75;1600808;87;21239;-65
2020/12/26 04:46:43;;;;;;;3.27;2.08;;;;;;;-0.16;75.64;99837.98;1643679;87;21235;-64
2020/12/26 04:49:11;;;;;;;4.25;2.35;;;;;;;-0.22;75.91;99838.41;1729735;82;21242;-64
2020/12/26 04:51:41;;;;;;;4.20;2.42;;;;;;;-0.27;75.94;99840.14;1736301;82;21623;-64
2020/12/26 04:54:13;;;;;;;3.47;2.52;;;;;;;-0.31;76.26;99839.69;1735938;82;21168;-64
2020/12/26 04:56:43;;;;;;;4.85;2.65;;;;;;;-0.35;76.48;99839.67;1735943;82;21294;-64
2020/12/26 04:59:12;;;;;;;2.92;2.08;;;;;;;-0.39;76.31;99841.41;1736174;82;21203;-65
2020/12/26 05:01:41;;;;;;;4.85;2.70;;;;;;;-0.43;76.45;99846.13;1736213;82;21571;-64
2020/12/26 05:04:10;;;;;;;6.40;2.58;;;;;;;-0.46;76.55;99846.98;1736062;82;21203;-66
2020/12/26 05:06:51;;;;;;;4.03;2.40;;;;;;;-0.47;77.45;99849.56;1735960;82;21172;-65
2020/12/26 05:09:21;;;;;;;5.58;2.40;;;;;;;-0.46;78.19;99852.16;1736044;82;21380;-67
2020/12/26 05:11:55;;;;;;;2.87;2.50;;;;;;;-0.45;77.98;99855.61;1737567;82;22229;-68
2020/12/26 05:14:26;;;;;;;4.03;2.70;;;;;;;-0.46;77.83;99853.86;1738340;82;21193;-66
2020/12/26 05:16:54;;;;;;;4.97;2.20;;;;;;;-0.49;77.63;99856.45;1676304;81;479619;-65
2020/12/26 05:19:22;;;;;;;4.53;2.30;;;;;;;-0.52;78.19;99856.45;1680469;85;21579;-66
2020/12/26 05:21:53;;;;;;;2.45;2.12;;;;;;;-0.52;78.03;99856.45;1680415;85;21373;-66
2020/12/26 05:24:21;;;;;;;3.98;2.17;;;;;;;-0.54;78.12;99860.75;1689911;84;21218;-66
2020/12/26 05:26:51;;;;;;;5.03;2.00;;;;;;;-0.56;78.31;99863.32;1691682;84;21181;-64
2020/12/26 05:29:20;;;;;;;4.30;2.40;;;;;;;-0.60;77.92;99858.13;1677705;85;21205;-64
2020/12/26 05:32:04;;;;;;;4.45;2.77;;;;;;;-0.61;78.11;99857.27;1677950;85;21208;-65
2020/12/26 05:34:35;;;;;;;3.22;2.33;;;;;;;-0.66;77.72;99857.25;1676752;84;21585;-66
2020/12/26 05:37:04;;;;;;;5.95;2.50;;;;;;;-0.68;77.95;99861.99;1677825;85;21169;-63
2020/12/26 05:39:38;;;;;;;5.37;2.52;;;;;;;-0.71;78.19;99871.04;1682510;84;21662;-65
2020/12/26 05:42:06;;;;;;;5.33;3.00;;;;;;;-0.73;78.25;99868.44;1669437;85;21778;-66
2020/12/26 05:44:37;;;;;;;5.17;3.05;;;;;;;-0.76;78.23;99877.48;1678027;85;21197;-65
2020/12/26 05:47:06;;;;;;;3.77;2.55;;;;;;;-0.83;77.75;99874.40;1677791;85;21277;-65
2020/12/26 05:49:38;;;;;;;4.40;2.65;;;;;;;-0.89;77.63;99876.98;1686818;84;21237;-65
2020/12/26 05:52:11;;;;;;;4.10;2.60;;;;;;;-0.96;77.69;99876.52;1706304;84;21225;-65
2020/12/26 05:54:51;;;;;;;3.35;2.65;;;;;;;-0.99;78.04;99886.81;1706329;84;21589;-65
2020/12/26 05:57:19;;;;;;;3.30;2.40;;;;;;;-1.06;78.18;99893.26;1696318;83;21174;-65
2020/12/26 05:59:53;;;;;;;3.90;2.50;;;;;;;-1.14;78.56;99892.33;1677856;85;22269;-66
2020/12/26 06:02:27;;;;;;;4.92;2.58;;;;;;;-1.20;78.56;99907.78;1677821;85;21141;-66
2020/12/26 06:05:05;;;;;;;5.28;2.90;;;;;;;-1.27;78.76;99908.59;1677869;85;21200;-65
2020/12/26 06:10:12;;;;;;;5.00;3.20;;;;;;;-1.33;79.31;99920.20;1775263;79;22158;-66
2020/12/26 06:12:40;;;;;;;7.33;3.58;;;;;;;-1.45;79.13;99920.94;1734907;82;21622;-66
2020/12/26 06:15:07;;;;;;;8.75;4.80;;;;;;;-1.50;79.12;99929.94;1661477;82;21402;-71
2020/12/26 06:17:35;;;;;;;9.50;4.67;;;;;;;-1.57;79.13;99929.45;1676462;84;21231;-73
2020/12/26 06:20:08;;;;;;;13.32;5.33;;;;;;;-1.58;79.23;99930.31;1662081;84;21585;-73
2020/12/26 06:22:50;;;;;;;34.08;11.83;;;;;;;-1.60;79.15;99925.99;1666835;85;21163;-73
2020/12/26 06:25:20;;;;;;;9.85;3.92;;;;;;;-1.66;79.05;99915.16;1684080;84;22294;-73
2020/12/26 06:28:00;;;;;;;24.20;8.95;;;;;;;-1.72;79.13;99915.13;1681533;85;21255;-74
2020/12/26 06:30:29;;;;;;;15.32;7.45;;;;;;;-1.77;79.54;99919.36;1672973;85;21188;-72
2020/12/26 06:32:58;;;;;;;9.28;4.65;;;;;;;-1.81;79.80;99923.64;1681097;81;21632;-66
2020/12/26 06:35:28;;;;;;;7.50;4.28;;;;;;;-1.85;80.16;99926.18;1655088;85;21247;-67
2020/12/26 06:38:15;;;;;;;9.13;5.10;;;;;;;-1.92;80.29;99929.98;1570737;89;21189;-67
2020/12/26 06:41:02;;;;;;;8.35;4.80;;;;;;;-1.97;80.82;99925.20;1586964;87;22126;-67
2020/12/26 06:43:51;;;;;;;7.92;3.87;;;;;;;-2.04;80.70;99922.13;1654557;86;21180;-68
2020/12/26 06:46:27;;;;;;;7.87;3.50;;;;;;;-2.09;80.92;99921.22;1620542;88;21617;-67
2020/12/26 06:48:57;;;;;;;8.43;5.22;;;;;;;-2.10;81.33;99932.37;1654450;86;21618;-67
2020/12/26 06:51:36;;;;;;;8.60;4.90;;;;;;;-2.15;81.71;99941.34;1647074;85;21496;-67
2020/12/26 06:54:07;;;;;;;6.50;4.10;;;;;;;-2.16;82.20;99946.51;1647047;87;21787;-67
2020/12/26 06:56:45;;;;;;;10.17;5.00;;;;;;;-2.22;82.61;99959.33;1646966;87;21229;-68
2020/12/26 06:59:15;;;;;;;17.07;7.72;;;;;;;-2.25;83.06;99961.88;1647142;86;21165;-68
2020/12/26 07:01:46;;;;;;;27.48;11.63;;;;;;;-2.25;83.55;99961.88;1648724;85;21186;-67
2020/12/26 07:04:19;;;;;;;45.70;19.92;;;;;;;-2.23;83.80;99964.03;1647025;87;21173;-68
2020/12/26 07:06:52;;;;;;;35.35;16.80;;;;;;;-2.22;83.92;99967.92;1646933;87;21213;-67
2020/12/26 07:09:41;;;;;;;46.53;19.65;;;;;;;-2.16;84.32;99961.56;1646796;87;21214;-67
2020/12/26 07:12:11;;;;;;;34.13;15.72;;;;;;;-2.11;84.31;99960.32;1652395;85;21610;-66
2020/12/26 07:14:59;;;;;;;29.67;12.68;;;;;;;-1.84;84.24;99961.45;1655786;85;21583;-66
2020/12/26 07:17:27;;;;;;;31.25;14.43;;;;;;;-1.26;85.53;99964.60;1651151;85;21200;-73
2020/12/26 07:19:58;;;;;;;29.30;14.25;;;;;;;-0.38;84.64;99960.84;1688949;84;21815;-71
2020/12/26 07:22:30;;;;;;;32.85;13.72;;;;;;;0.49;83.43;99961.54;1646387;86;21245;-78
2020/12/26 07:25:07;;;;;;;26.55;12.23;;;;;;;1.40;81.03;99951.98;1684070;84;21166;-78
2020/12/26 07:27:39;;;;;;;21.87;10.32;;;;;;;2.29;78.71;99960.66;1661034;86;21169;-74
2020/12/26 07:30:18;;;;;;;21.90;13.08;;;;;;;3.24;74.81;99968.14;1641929;87;21661;-74
2020/12/26 07:32:55;;;;;;;25.65;11.70;;;;;;;4.08;68.31;99962.87;1666939;83;21386;-65
2020/12/26 07:35:29;;;;;;;26.20;13.70;;;;;;;4.77;66.70;99965.78;1680808;83;29710;-64
2020/12/26 07:38:04;;;;;;;37.95;19.02;;;;;;;5.38;64.01;99966.05;1665913;84;21208;-65
2020/12/26 07:40:37;;;;;;;36.80;15.88;;;;;;;6.00;62.97;99959.17;1665811;86;21193;-65
2020/12/26 07:43:11;;;;;;;22.62;12.15;;;;;;;6.69;61.06;99962.00;1665056;86;21143;-63
2020/12/26 07:45:41;;;;;;;22.65;11.78;;;;;;;7.26;56.17;99969.31;1666117;86;21237;-64
2020/12/26 07:48:09;;;;;;;17.55;9.88;;;;;;;7.64;54.83;99962.20;1669399;84;21213;-65
2020/12/26 07:50:41;;;;;;;13.70;7.33;;;;;;;8.01;51.70;99961.16;1665715;86;21205;-64
2020/12/26 07:53:11;;;;;;;12.05;7.12;;;;;;;7.89;50.01;99967.61;1656119;86;21193;-63
2020/12/26 07:55:48;;;;;;;16.60;8.53;;;;;;;8.00;50.23;99983.02;1812036;76;28844;-63
2020/12/26 07:58:17;;;;;;;32.65;14.70;;;;;;;7.78;49.59;99986.26;1769399;79;21148;-65
2020/12/26 08:00:45;;;;;;;41.45;18.02;;;;;;;7.81;50.70;99984.45;1803866;79;21263;-65
2020/12/26 08:03:15;;;;;;;48.10;20.02;;;;;;;7.54;51.87;99982.53;1806348;79;21228;-64
2020/12/26 08:05:48;;;;;;;;;;;;;;;7.45;51.77;99986.70;1808874;79;21640;-64
2020/12/26 08:08:23;;;;;;;20.50;10.10;;;;;;;7.26;51.36;99988.10;1805406;79;20605;-63
2020/12/26 08:10:58;;;;;;;12.53;8.20;;;;;;;7.08;52.50;99991.58;1806018;77;21154;-64
2020/12/26 08:13:29;;;;;;;12.15;7.12;;;;;;;6.94;51.47;99993.23;1747270;80;21210;-65
2020/12/26 08:16:04;;;;;;;12.93;6.97;;;;;;;6.75;52.42;99994.58;1770014;81;21645;-63
2020/12/26 08:18:34;;;;;;;13.03;7.22;;;;;;;6.80;52.80;99994.02;1735766;80;21242;-65
2020/12/26 08:21:02;;;;;;;11.28;6.67;;;;;;;7.28;52.95;99988.47;1730543;81;21210;-64
2020/12/26 08:23:30;;;;;;;10.05;6.62;;;;;;;7.78;51.30;99983.64;1733729;82;22324;-63
2020/12/26 08:26:12;;;;;;;10.90;6.65;;;;;;;7.95;50.28;99988.39;1779221;80;21342;-66
2020/12/26 08:29:30;;;;;;;16.87;7.58;;;;;;;7.87;49.92;99987.77;1777412;80;21263;-66
2020/12/26 08:32:09;;;;;;;21.55;9.08;;;;;;;8.10;50.41;99983.64;1836598;76;28172;-66
2020/12/26 08:34:51;;;;;;;17.23;8.70;;;;;;;8.30;49.79;99984.34;1731710;78;21123;-72
2020/12/26 08:37:25;;;;;;;14.53;8.38;;;;;;;8.42;48.86;99987.95;1622760;84;22776;-72
2020/12/26 08:40:01;;;;;;;13.60;7.70;;;;;;;8.07;49.33;99987.18;1619098;88;21210;-72
2020/12/26 08:42:28;;;;;;;11.60;7.00;;;;;;;7.59;50.40;99985.03;1618993;88;21268;-73
2020/12/26 08:44:58;;;;;;;13.22;7.37;;;;;;;7.25;51.88;99980.70;1618699;88;21126;-73
2020/12/26 08:47:32;;;;;;;12.35;6.75;;;;;;;7.04;52.50;99978.18;1584075;88;21253;-72
2020/12/26 08:49:59;;;;;;;12.55;6.97;;;;;;;6.88;53.24;99974.22;1618216;87;22312;-74
2020/12/26 08:52:27;;;;;;;12.28;7.15;;;;;;;6.48;53.77;99969.45;1597594;88;22254;-73
2020/12/26 08:55:09;;;;;;;14.70;7.53;;;;;;;6.13;54.77;99972.00;1592052;88;21211;-74
2020/12/26 08:57:41;;;;;;;12.13;7.42;;;;;;;5.83;55.88;99961.26;1612266;83;22317;-66
2020/12/26 09:00:22;;;;;;;11.83;7.20;;;;;;;5.60;56.91;99963.87;1796164;78;27906;-63
2020/12/26 09:02:52;;;;;;;12.00;7.25;;;;;;;5.40;57.34;99947.27;1758013;80;21366;-64
2020/12/26 09:05:30;;;;;;;12.50;7.17;;;;;;;5.22;57.97;99953.71;1761496;80;21414;-64
2020/12/26 09:08:10;;;;;;;10.60;6.65;;;;;;;5.15;58.50;99938.16;1757069;80;21635;-64
2020/12/26 09:10:39;;;;;;;10.60;6.40;;;;;;;5.53;58.25;99928.31;1723119;81;21255;-64
2020/12/26 09:13:14;;;;;;;9.70;6.12;;;;;;;6.27;57.54;99915.02;1725682;81;21194;-62
2020/12/26 09:15:54;;;;;;;10.98;5.78;;;;;;;7.09;55.97;99922.62;1716817;83;21250;-64
2020/12/26 09:18:25;;;;;;;8.83;5.50;;;;;;;7.91;53.90;99910.75;1702714;83;22267;-63
2020/12/26 09:20:58;;;;;;;12.80;5.92;;;;;;;8.71;51.41;99906.11;1718112;82;21218;-66
2020/12/26 09:23:36;;;;;;;9.00;5.83;;;;;;;9.48;48.63;99913.96;1735818;82;21194;-64
2020/12/26 09:26:24;;;;;;;12.55;5.67;;;;;;;10.17;46.86;99924.11;1714887;82;21198;-67
2020/12/26 09:29:22;;;;;;;7.55;5.33;;;;;;;10.86;43.96;99930.59;1837730;76;38229;-66
2020/12/26 09:31:50;;;;;;;9.25;4.97;;;;;;;10.81;44.92;99936.52;1832780;77;21147;-67
2020/12/26 09:34:22;;;;;;;8.53;5.15;;;;;;;10.56;45.28;99936.66;1822487;77;22125;-64
2020/12/26 09:37:06;;;;;;;6.67;4.40;;;;;;;10.23;44.08;99940.11;1802860;77;42364;-65
2020/12/26 09:39:38;;;;;;;7.85;4.83;;;;;;;9.50;45.37;99955.08;1806773;77;21158;-64
2020/12/26 09:42:05;;;;;;;9.45;5.17;;;;;;;8.66;46.70;99973.66;1734280;81;27358;-66
2020/12/26 09:44:34;;;;;;;8.33;5.05;;;;;;;8.07;48.51;99978.00;1741867;81;21212;-64
2020/12/26 09:47:04;;;;;;;8.95;5.35;;;;;;;7.63;49.46;99991.06;1763936;79;21283;-65
2020/12/26 09:49:32;;;;;;;10.75;6.10;;;;;;;7.27;50.91;99999.86;1743583;81;21669;-64
2020/12/26 09:51:59;;;;;;;10.50;5.78;;;;;;;6.93;51.68;99999.83;1749388;81;21150;-66
2020/12/26 09:54:28;;;;;;;12.43;5.40;;;;;;;6.61;52.61;99997.98;1758141;79;21185;-65
2020/12/26 09:56:57;;;;;;;11.05;6.12;;;;;;;6.35;53.78;99997.23;1759161;81;21225;-65
2020/12/26 09:59:25;;;;;;;12.80;6.03;;;;;;;6.08;54.87;100001.71;1744700;81;21383;-64
2020/12/26 10:01:53;;;;;;;10.38;5.85;;;;;;;5.88;56.03;100009.06;1759166;81;21577;-65
2020/12/26 10:04:21;;;;;;;8.70;5.62;;;;;;;5.71;56.80;100024.22;1734063;80;21181;-65
2020/12/26 10:06:49;;;;;;;12.10;5.90;;;;;;;5.52;57.93;100015.84;1764296;81;21178;-65
2020/12/26 10:09:20;;;;;;;10.08;6.15;;;;;;;5.33;58.26;100016.62;1758495;81;21134;-64
2020/12/26 10:11:50;;;;;;;14.10;6.22;;;;;;;5.10;59.03;100014.39;1750485;79;21267;-66
2020/12/26 10:14:18;;;;;;;10.10;6.08;;;;;;;4.87;60.12;100020.84;1734530;81;21600;-64
2020/12/26 10:16:47;;;;;;;11.43;5.65;;;;;;;4.67;60.82;100021.58;1743522;80;22272;-65
2020/12/26 10:19:16;;;;;;;14.20;6.15;;;;;;;4.46;60.75;100018.84;1751648;80;21186;-66
2020/12/26 10:21:44;;;;;;;12.88;6.90;;;;;;;4.29;61.67;100031.66;1761847;79;21280;-65
2020/12/26 10:24:11;;;;;;;13.00;7.08;;;;;;;4.17;62.90;100041.80;1750636;81;21597;-65
2020/12/26 10:26:41;;;;;;;13.05;7.03;;;;;;;4.02;63.22;100039.82;1753763;80;21188;-65
2020/12/26 10:29:32;;;;;;;11.50;5.87;;;;;;;3.82;63.01;100039.62;1713545;81;21660;-67
2020/12/26 10:31:59;;;;;;;14.45;6.80;;;;;;;3.73;64.29;100029.30;1663171;84;21192;-65
2020/12/26 10:34:28;;;;;;;10.03;5.83;;;;;;;3.65;64.88;100032.41;1650669;85;21734;-64
2020/12/26 10:36:58;;;;;;;12.73;6.87;;;;;;;3.62;65.83;100033.31;1625887;85;21296;-66
2020/12/26 10:39:26;;;;;;;13.55;6.67;;;;;;;3.60;65.83;100044.63;1643932;85;21275;-64
2020/12/26 10:41:54;;;;;;;12.93;6.60;;;;;;;3.54;67.28;100036.41;1650532;85;21242;-66
2020/12/26 10:44:22;;;;;;;13.88;7.50;;;;;;;3.54;67.28;100036.41;1632141;86;21218;-66
2020/12/26 10:46:49;;;;;;;16.77;8.10;;;;;;;3.46;67.21;100036.50;1637020;86;21649;-65
2020/12/26 10:49:17;;;;;;;13.70;7.12;;;;;;;3.41;67.81;100040.89;1637315;86;21861;-65
2020/12/26 10:51:49;;;;;;;12.68;7.28;;;;;;;3.39;68.60;100040.48;1665998;85;21251;-66
2020/12/26 10:54:17;;;;;;;15.60;6.87;;;;;;;3.37;68.07;100047.00;1627481;86;21178;-65
2020/12/26 10:56:50;;;;;;;16.82;7.80;;;;;;;3.29;67.23;100047.48;1624801;85;21178;-65
2020/12/26 10:59:18;;;;;;;16.77;8.70;;;;;;;3.20;67.20;100051.47;1626390;85;21153;-64
2020/12/26 11:01:47;;;;;;;20.70;8.73;;;;;;;3.12;67.75;100048.50;1632573;85;22304;-65
2020/12/26 11:04:14;;;;;;;15.90;7.80;;;;;;;2.97;69.06;100064.24;1629825;85;21283;-66
2020/12/26 11:06:50;;;;;;;14.68;8.55;;;;;;;2.97;69.06;100064.24;1639403;86;21204;-64
2020/12/26 11:09:18;;;;;;;18.57;9.25;;;;;;;2.93;68.82;100065.13;1621112;85;21631;-64
2020/12/26 11:11:49;;;;;;;19.48;6.70;;;;;;;2.83;69.83;100066.94;1631769;86;21210;-64
2020/12/26 11:14:17;;;;;;;14.95;6.97;;;;;;;2.83;69.83;100066.94;1632887;86;21481;-64
2020/12/26 11:16:52;;;;;;;14.28;8.35;;;;;;;2.82;70.25;100066.94;1642561;85;21185;-64
2020/12/26 11:19:20;;;;;;;14.23;7.22;;;;;;;2.78;70.83;100067.82;1635732;84;21647;-64
2020/12/26 11:21:54;;;;;;;12.88;7.33;;;;;;;2.72;71.28;100070.89;1637245;85;21227;-65
2020/12/26 11:24:22;;;;;;;18.23;7.05;;;;;;;2.68;72.14;100057.48;1629943;86;21222;-63
2020/12/26 11:26:51;;;;;;;11.88;7.22;;;;;;;2.63;71.42;100061.84;1624738;85;21401;-64
2020/12/26 11:29:19;;;;;;;19.00;8.08;;;;;;;2.62;71.04;100064.45;1636315;85;21620;-64
2020/12/26 11:31:47;;;;;;;15.38;7.47;;;;;;;2.64;72.73;100059.66;1620625;87;21261;-63
2020/12/26 11:34:14;;;;;;;16.37;8.28;;;;;;;2.68;71.33;100059.22;1665026;81;21646;-80
2020/12/26 11:36:42;;;;;;;16.15;8.30;;;;;;;2.69;71.58;100051.42;1740500;81;22807;-73
2020/12/26 11:39:10;;;;;;;19.20;8.58;;;;;;;2.77;71.49;100057.00;1735042;81;21417;-70
2020/12/26 11:41:38;;;;;;;16.05;8.03;;;;;;;2.77;71.49;100057.00;1734497;82;21616;-79
2020/12/26 11:44:06;;;;;;;18.75;8.65;;;;;;;2.73;70.79;100063.50;1733186;82;21223;-72
2020/12/26 11:46:34;;;;;;;14.73;7.50;;;;;;;2.72;71.03;100064.39;1736154;81;21155;-77
2020/12/26 11:49:03;;;;;;;18.07;9.50;;;;;;;2.71;71.23;100057.89;1734751;81;21219;-79
2020/12/26 11:51:31;;;;;;;15.58;8.85;;;;;;;2.68;71.72;100062.67;1737036;81;21393;-79
2020/12/26 11:53:58;;;;;;;19.73;9.53;;;;;;;2.69;72.27;100065.72;1729083;82;21205;-80
2020/12/26 11:56:28;;;;;;;16.82;9.55;;;;;;;2.66;72.37;100063.12;1725680;82;21210;-78